Time;durP1;ratioP1;P1;durP2;ratioP2;P2;SDS_P1;SDS_P2;PMS_P1;PMS_P2;Temp;Humidity;BMP_temperature;BMP_pressure;BME280_temperature;BME280_humidity;BME280_pressure;Samples;Min_cycle;Max_cycle;Signal;HPM_P1;HPM_P2
2024/01/02 00:00:56;;;;;;;2.65;0.60;;;12.10;57.40;;;;;;2305172;54;20990;-68
2024/01/02 00:03:24;;;;;;;2.65;0.73;;;12.10;57.40;;;;;;2547566;53;21405;-68
2024/01/02 00:05:51;;;;;;;1.37;0.70;;;12.10;57.30;;;;;;2542782;53;20941;-68
2024/01/02 00:08:17;;;;;;;2.97;0.62;;;12.10;57.20;;;;;;2304954;55;21016;-67
2024/01/02 00:10:45;;;;;;;0.85;0.40;;;12.10;57.30;;;;;;2542778;53;21024;-67
2024/01/02 00:13:11;;;;;;;2.03;0.62;;;12.20;57.30;;;;;;2546300;53;20989;-68
2024/01/02 00:15:38;;;;;;;2.25;0.70;;;12.20;57.30;;;;;;2304123;55;20988;-67
2024/01/02 00:18:04;;;;;;;1.67;0.50;;;12.20;57.30;;;;;;2305139;55;20938;-68
2024/01/02 00:20:33;;;;;;;1.37;0.40;;;12.20;57.30;;;;;;2542735;53;20970;-67
2024/01/02 00:22:59;;;;;;;3.62;0.60;;;12.20;57.30;;;;;;2544039;53;20993;-68
2024/01/02 00:25:25;;;;;;;2.72;0.50;;;12.20;57.30;;;;;;2543186;53;21442;-68
2024/01/02 00:27:52;;;;;;;1.55;0.40;;;12.20;57.30;;;;;;2304775;55;20949;-68
2024/01/02 00:30:21;;;;;;;1.02;0.32;;;12.30;57.40;;;;;;2305304;54;20970;-69
2024/01/02 00:32:47;;;;;;;1.75;0.40;;;12.20;57.30;;;;;;2547597;53;21374;-68
2024/01/02 00:35:14;;;;;;;1.45;0.40;;;12.30;57.30;;;;;;2554971;52;20913;-68
2024/01/02 00:37:41;;;;;;;2.28;0.47;;;12.30;57.30;;;;;;2305763;55;21822;-68
2024/01/02 00:40:08;;;;;;;2.17;0.60;;;12.30;57.20;;;;;;2305046;55;20941;-69
2024/01/02 00:42:37;;;;;;;2.47;0.50;;;12.30;57.10;;;;;;2542816;54;21533;-68
2024/01/02 00:45:05;;;;;;;1.52;0.40;;;12.30;57.00;;;;;;2304430;54;20934;-68
2024/01/02 00:47:31;;;;;;;1.20;0.40;;;12.30;57.20;;;;;;2305308;55;20934;-68
2024/01/02 00:49:59;;;;;;;1.70;0.40;;;12.30;57.20;;;;;;2305707;55;20941;-68
2024/01/02 00:52:25;;;;;;;1.50;0.45;;;12.30;57.20;;;;;;2544426;53;20915;-68
2024/01/02 00:54:52;;;;;;;3.03;0.40;;;12.30;57.10;;;;;;2556773;52;21038;-67
2024/01/02 00:57:18;;;;;;;0.80;0.40;;;12.40;57.10;;;;;;2305234;54;21458;-68
2024/01/02 00:59:45;;;;;;;1.15;0.43;;;12.40;57.00;;;;;;2543123;53;20993;-68
2024/01/02 01:02:13;;;;;;;1.48;0.50;;;12.40;57.10;;;;;;2305399;55;20921;-69
2024/01/02 01:04:43;;;;;;;1.30;0.65;;;12.40;57.00;;;;;;2543466;53;20989;-68
2024/01/02 01:07:10;;;;;;;1.87;0.50;;;12.50;56.70;;;;;;2543599;53;20946;-69
2024/01/02 01:09:36;;;;;;;1.20;0.40;;;12.50;56.80;;;;;;2543337;53;20937;-68
2024/01/02 01:12:04;;;;;;;2.08;0.50;;;12.50;56.90;;;;;;2305488;54;21895;-67
2024/01/02 01:14:32;;;;;;;1.35;0.40;;;12.50;56.90;;;;;;2543161;54;21002;-68
2024/01/02 01:16:59;;;;;;;2.87;0.60;;;12.50;56.90;;;;;;2305118;55;20946;-68
2024/01/02 01:19:26;;;;;;;1.90;0.68;;;12.50;56.70;;;;;;2555301;53;20952;-68
2024/01/02 01:21:52;;;;;;;1.70;0.40;;;12.60;56.70;;;;;;2310850;54;20937;-68
2024/01/02 01:24:18;;;;;;;1.65;0.40;;;12.60;56.60;;;;;;2544028;53;20970;-68
2024/01/02 01:26:45;;;;;;;1.70;0.40;;;12.60;56.60;;;;;;2545217;53;21368;-68
2024/01/02 01:29:12;;;;;;;3.60;0.40;;;12.60;56.60;;;;;;2539943;53;20946;-68
2024/01/02 01:31:38;;;;;;;0.88;0.40;;;12.60;56.60;;;;;;2304663;54;21021;-68
2024/01/02 01:34:05;;;;;;;1.10;0.50;;;12.60;56.70;;;;;;2303994;54;21332;-69
2024/01/02 01:36:32;;;;;;;1.33;0.40;;;12.60;56.50;;;;;;2542322;54;20966;-68
2024/01/02 01:39:01;;;;;;;1.30;0.40;;;12.70;56.60;;;;;;2542876;54;21594;-68
2024/01/02 01:41:30;;;;;;;1.83;0.50;;;12.70;56.60;;;;;;2310912;54;20945;-68
2024/01/02 01:43:57;;;;;;;3.35;0.45;;;12.70;56.50;;;;;;2305251;54;21299;-68
2024/01/02 01:46:25;;;;;;;1.98;0.50;;;12.70;56.50;;;;;;2305413;55;20994;-68
2024/01/02 01:48:52;;;;;;;1.50;0.30;;;12.70;56.50;;;;;;2543405;53;21923;-68
2024/01/02 01:51:27;;;;;;;1.10;0.50;;;12.70;56.30;;;;;;2305424;54;21013;-67
2024/01/02 01:53:53;;;;;;;1.12;0.30;;;12.70;56.20;;;;;;2304822;54;21010;-68
2024/01/02 01:56:21;;;;;;;1.73;0.40;;;12.80;56.50;;;;;;2543166;54;21173;-69
2024/01/02 01:58:48;;;;;;;1.00;0.30;;;12.70;56.30;;;;;;2304663;54;21012;-68
2024/01/02 02:01:14;;;;;;;0.85;0.30;;;12.70;56.20;;;;;;2542682;53;20962;-68
2024/01/02 02:03:41;;;;;;;1.20;0.50;;;12.70;56.10;;;;;;2546694;53;21225;-68
2024/01/02 02:06:08;;;;;;;1.67;0.50;;;12.70;56.00;;;;;;2548084;53;20937;-68
2024/01/02 02:08:36;;;;;;;2.55;0.55;;;12.70;56.10;;;;;;2308904;55;20941;-68
2024/01/02 02:11:03;;;;;;;1.10;0.30;;;12.70;56.10;;;;;;2308115;54;21773;-69
2024/01/02 02:13:29;;;;;;;2.00;0.47;;;12.80;56.20;;;;;;2543123;53;20957;-68
2024/01/02 02:15:56;;;;;;;0.88;0.40;;;12.80;56.00;;;;;;2543492;53;21757;-68
2024/01/02 02:18:23;;;;;;;1.05;0.40;;;12.70;55.80;;;;;;2545880;53;20949;-68
2024/01/02 02:20:49;;;;;;;1.33;0.40;;;12.70;55.80;;;;;;2306517;54;20926;-67
2024/01/02 02:23:16;;;;;;;0.85;0.40;;;12.70;55.80;;;;;;2311082;54;20949;-68
2024/01/02 02:25:42;;;;;;;1.48;0.50;;;12.80;55.70;;;;;;2543908;54;21214;-68
2024/01/02 02:28:08;;;;;;;0.82;0.30;;;12.70;55.60;;;;;;2544464;53;21046;-69
2024/01/02 02:30:35;;;;;;;1.10;0.40;;;12.70;55.70;;;;;;2546212;53;20957;-69
2024/01/02 02:33:02;;;;;;;0.82;0.30;;;12.80;55.80;;;;;;2305469;55;20994;-68
2024/01/02 02:35:28;;;;;;;0.65;0.30;;;12.70;55.70;;;;;;2305455;55;21737;-68
2024/01/02 02:37:55;;;;;;;0.52;0.30;;;12.70;55.60;;;;;;2543406;53;20933;-68
2024/01/02 02:40:21;;;;;;;0.93;0.30;;;12.70;55.50;;;;;;2543717;53;20961;-69
2024/01/02 02:42:50;;;;;;;0.55;0.20;;;12.70;55.40;;;;;;2305267;55;21433;-69
2024/01/02 02:45:17;;;;;;;1.17;0.35;;;12.70;55.40;;;;;;2305298;54;21479;-68
2024/01/02 02:47:43;;;;;;;2.10;0.60;;;12.70;55.20;;;;;;2304952;55;20918;-67
2024/01/02 02:50:09;;;;;;;1.35;0.30;;;12.70;55.30;;;;;;2543930;53;21468;-69
2024/01/02 02:52:39;;;;;;;0.62;0.30;;;12.70;55.30;;;;;;2542937;53;20918;-68
2024/01/02 02:55:06;;;;;;;0.60;0.30;;;12.70;55.20;;;;;;2305050;55;20917;-68
2024/01/02 02:57:32;;;;;;;1.33;0.50;;;12.70;55.40;;;;;;2543704;53;20989;-68
2024/01/02 02:59:59;;;;;;;1.27;0.40;;;12.70;55.70;;;;;;2560706;52;20960;-68
2024/01/02 03:02:26;;;;;;;1.23;0.30;;;12.70;55.40;;;;;;2548572;52;21965;-68
2024/01/02 03:04:53;;;;;;;0.77;0.30;;;12.70;55.30;;;;;;2543456;53;21772;-68
2024/01/02 03:07:19;;;;;;;1.60;0.40;;;12.80;55.40;;;;;;2305415;55;21540;-68
2024/01/02 03:09:45;;;;;;;0.88;0.30;;;12.80;55.40;;;;;;2543290;54;21032;-68
2024/01/02 03:12:12;;;;;;;1.65;0.47;;;12.70;55.10;;;;;;2310088;54;20994;-68
2024/01/02 03:14:39;;;;;;;1.08;0.32;;;12.70;55.20;;;;;;2306236;54;20926;-68
2024/01/02 03:17:05;;;;;;;0.77;0.40;;;12.70;55.20;;;;;;2305630;55;20930;-67
2024/01/02 03:19:31;;;;;;;0.80;0.32;;;12.80;55.40;;;;;;2543348;53;21469;-68
2024/01/02 03:21:58;;;;;;;1.50;0.32;;;12.80;55.30;;;;;;2542822;53;21285;-67
2024/01/02 03:27:53;;;;;;;0.62;0.30;;;12.70;55.10;;;;;;2543537;54;21005;-68
2024/01/02 03:30:19;;;;;;;0.40;0.20;;;12.80;55.60;;;;;;2543585;53;21952;-68
2024/01/02 03:32:45;;;;;;;1.25;0.37;;;12.80;55.70;;;;;;2307234;54;20914;-68
2024/01/02 03:35:12;;;;;;;0.30;0.30;;;12.70;55.40;;;;;;2544625;54;21197;-68
2024/01/02 03:37:38;;;;;;;0.98;0.40;;;12.70;55.60;;;;;;2315635;54;21094;-68
2024/01/02 03:40:06;;;;;;;0.90;0.30;;;12.70;55.70;;;;;;2305774;55;21810;-68
2024/01/02 03:42:32;;;;;;;1.40;0.55;;;12.70;55.90;;;;;;2305587;55;20933;-67
2024/01/02 03:44:58;;;;;;;0.37;0.20;;;12.50;55.70;;;;;;2542852;54;20914;-68
2024/01/02 03:47:27;;;;;;;0.70;0.30;;;12.70;56.00;;;;;;2305711;55;20957;-69
2024/01/02 03:49:53;;;;;;;0.80;0.30;;;12.70;56.00;;;;;;2543203;54;21525;-69
2024/01/02 03:52:20;;;;;;;0.52;0.30;;;12.60;56.00;;;;;;2543702;53;20961;-68
2024/01/02 03:54:46;;;;;;;2.25;0.30;;;12.60;56.10;;;;;;2543218;54;20993;-69
2024/01/02 03:57:12;;;;;;;0.50;0.30;;;12.60;56.20;;;;;;2543348;53;20962;-69
2024/01/02 03:59:39;;;;;;;0.62;0.30;;;12.50;56.20;;;;;;2543251;54;20954;-68
2024/01/02 04:02:06;;;;;;;0.45;0.30;;;12.50;56.30;;;;;;2545298;53;21233;-69
2024/01/02 04:04:33;;;;;;;0.75;0.20;;;12.50;56.50;;;;;;2306317;54;20934;-69
2024/01/02 04:06:59;;;;;;;0.82;0.30;;;12.50;56.50;;;;;;2543694;53;20962;-68
2024/01/02 04:09:26;;;;;;;1.12;0.25;;;12.50;56.50;;;;;;2543701;53;20997;-69
2024/01/02 04:11:53;;;;;;;1.02;0.30;;;12.40;56.40;;;;;;2307418;54;20934;-67
2024/01/02 04:14:21;;;;;;;0.80;0.28;;;12.40;56.50;;;;;;2545475;53;20902;-69
2024/01/02 04:16:47;;;;;;;0.70;0.22;;;12.40;56.50;;;;;;2544764;53;20926;-67
2024/01/02 04:19:14;;;;;;;1.55;0.28;;;12.40;56.60;;;;;;2305438;55;20958;-67
2024/01/02 04:21:40;;;;;;;0.55;0.28;;;12.40;57.20;;;;;;2309445;54;20957;-68
2024/01/02 04:24:06;;;;;;;0.65;0.20;;;12.40;56.70;;;;;;2544718;53;21012;-69
2024/01/02 04:26:33;;;;;;;0.90;0.30;;;12.30;56.70;;;;;;2304895;54;21945;-69
2024/01/02 04:28:59;;;;;;;0.50;0.30;;;12.30;56.60;;;;;;2304518;55;21002;-68
2024/01/02 04:31:34;;;;;;;0.88;0.20;;;12.40;56.80;;;;;;2304709;54;20945;-68
2024/01/02 04:34:00;;;;;;;1.25;0.43;;;12.40;56.90;;;;;;2542982;53;20993;-68
2024/01/02 04:36:27;;;;;;;0.75;0.20;;;12.30;56.90;;;;;;2305019;55;20937;-68
2024/01/02 04:38:53;;;;;;;0.68;0.20;;;12.30;56.90;;;;;;2305005;55;20942;-69
2024/01/02 04:41:23;;;;;;;0.28;0.20;;;12.30;56.90;;;;;;2290356;55;21880;-69
2024/01/02 04:43:49;;;;;;;0.55;0.30;;;12.30;56.90;;;;;;2305411;54;21045;-68
2024/01/02 04:46:15;;;;;;;1.67;0.37;;;12.30;57.00;;;;;;2304871;55;21018;-68
2024/01/02 04:48:41;;;;;;;1.08;0.30;;;12.30;57.00;;;;;;2543511;53;21009;-68
2024/01/02 04:51:08;;;;;;;0.85;0.20;;;12.30;56.90;;;;;;2304925;55;20950;-69
2024/01/02 04:53:35;;;;;;;0.88;0.25;;;12.30;57.00;;;;;;2311157;54;21067;-68
2024/01/02 04:56:01;;;;;;;0.55;0.20;;;12.30;57.00;;;;;;2543189;54;21225;-67
2024/01/02 04:58:27;;;;;;;0.25;0.20;;;12.40;57.10;;;;;;2305078;55;20922;-68
2024/01/02 05:04:22;;;;;;;0.73;0.30;;;12.30;56.90;;;;;;2542719;53;21021;-68
2024/01/02 05:06:48;;;;;;;0.75;0.30;;;12.40;57.10;;;;;;2304520;54;20905;-68
2024/01/02 05:09:16;;;;;;;0.75;0.20;;;12.40;57.10;;;;;;2304754;54;20910;-68
2024/01/02 05:11:42;;;;;;;1.10;0.30;;;12.40;57.20;;;;;;2304312;54;21475;-68
2024/01/02 05:14:09;;;;;;;0.98;0.30;;;12.40;57.20;;;;;;2542737;53;20971;-68
2024/01/02 05:16:38;;;;;;;1.75;0.43;;;12.40;57.20;;;;;;2304869;55;21446;-68
2024/01/02 05:19:04;;;;;;;1.98;0.40;;;12.40;57.20;;;;;;2305189;54;21001;-68
2024/01/02 05:21:30;;;;;;;0.47;0.20;;;12.40;57.10;;;;;;2535621;53;20993;-68
2024/01/02 05:23:57;;;;;;;1.05;0.32;;;12.40;57.10;;;;;;2543979;53;20934;-68
2024/01/02 05:26:23;;;;;;;0.40;0.20;;;12.40;57.10;;;;;;2305577;55;21127;-68
2024/01/02 05:28:49;;;;;;;0.52;0.30;;;12.40;57.20;;;;;;2304363;55;21052;-68
2024/01/02 05:31:19;;;;;;;0.45;0.20;;;12.50;57.30;;;;;;2543065;53;21045;-68
2024/01/02 05:33:45;;;;;;;0.32;0.20;;;12.50;57.30;;;;;;2543181;53;21005;-68
2024/01/02 05:36:12;;;;;;;0.30;0.20;;;12.50;57.30;;;;;;2305288;54;20997;-69
2024/01/02 05:38:38;;;;;;;0.37;0.20;;;12.50;57.30;;;;;;2543211;54;21634;-69
2024/01/02 05:41:06;;;;;;;1.25;0.15;;;12.60;57.40;;;;;;2305159;55;20922;-68
2024/01/02 05:43:33;;;;;;;1.55;0.30;;;12.60;57.40;;;;;;2305078;54;20942;-68
2024/01/02 05:46:00;;;;;;;0.57;0.20;;;12.60;57.40;;;;;;2543210;53;21013;-68
2024/01/02 05:48:29;;;;;;;0.75;0.30;;;12.60;57.40;;;;;;2543559;54;20970;-69
2024/01/02 05:50:55;;;;;;;0.32;0.20;;;12.60;57.40;;;;;;2305308;54;20941;-68
2024/01/02 05:53:21;;;;;;;0.60;0.30;;;12.70;57.50;;;;;;2305056;54;20993;-69
2024/01/02 05:55:47;;;;;;;0.70;0.30;;;12.70;57.40;;;;;;2543651;53;21237;-68
2024/01/02 05:58:14;;;;;;;0.40;0.20;;;12.70;57.40;;;;;;2543727;53;21759;-69
2024/01/02 06:00:40;;;;;;;0.90;0.32;;;12.70;57.40;;;;;;2543083;53;20946;-68
2024/01/02 06:03:07;;;;;;;1.30;0.30;;;12.70;57.40;;;;;;2305321;55;20954;-68
2024/01/02 06:05:33;;;;;;;0.50;0.20;;;12.70;57.40;;;;;;2543230;54;20934;-68
2024/01/02 06:08:03;;;;;;;0.13;0.10;;;12.70;57.40;;;;;;2305169;55;21326;-68
2024/01/02 06:10:29;;;;;;;0.20;0.20;;;12.80;57.50;;;;;;2305590;55;20949;-69
2024/01/02 06:12:55;;;;;;;0.47;0.20;;;12.80;57.50;;;;;;2304901;55;21835;-70
2024/01/02 06:15:24;;;;;;;0.20;0.20;;;12.80;57.50;;;;;;2543538;54;21269;-68
2024/01/02 06:17:52;;;;;;;0.40;0.20;;;12.80;57.50;;;;;;2305297;55;20941;-69
2024/01/02 06:20:18;;;;;;;0.13;0.13;;;12.80;57.60;;;;;;2305361;54;21036;-68
2024/01/02 06:23:03;;;;;;;0.43;0.10;;;12.80;57.60;;;;;;2543581;53;20994;-68
2024/01/02 06:25:29;;;;;;;1.17;0.20;;;12.90;57.50;;;;;;2543760;54;20953;-69
2024/01/02 06:27:56;;;;;;;0.52;0.20;;;12.90;57.70;;;;;;2543338;53;21017;-68
2024/01/02 06:30:22;;;;;;;0.40;0.20;;;12.90;57.70;;;;;;2544074;54;20945;-69
2024/01/02 06:32:49;;;;;;;0.35;0.20;;;12.90;57.70;;;;;;2543337;53;20946;-70
2024/01/02 06:35:15;;;;;;;0.82;0.30;;;12.90;57.70;;;;;;2305543;54;21017;-69
2024/01/02 06:37:44;;;;;;;0.52;0.20;;;12.90;57.70;;;;;;2304801;55;20918;-69
2024/01/02 06:40:11;;;;;;;0.47;0.20;;;12.90;57.70;;;;;;2305611;54;21106;-69
2024/01/02 06:42:37;;;;;;;1.12;0.20;;;12.90;57.70;;;;;;2304763;55;21715;-69
2024/01/02 06:45:04;;;;;;;0.93;0.28;;;12.90;57.70;;;;;;2543709;53;20926;-69
2024/01/02 06:47:30;;;;;;;0.28;0.10;;;12.90;57.70;;;;;;2304956;54;21506;-69
2024/01/02 06:49:57;;;;;;;1.35;0.13;;;12.90;57.80;;;;;;2304985;55;21285;-69
2024/01/02 06:52:25;;;;;;;0.52;0.20;;;12.90;57.80;;;;;;2305165;54;21005;-69
2024/01/02 06:54:51;;;;;;;0.52;0.20;;;12.90;58.10;;;;;;2305242;54;21013;-69
2024/01/02 07:00:46;;;;;;;0.60;0.30;;;12.90;57.80;;;;;;2541874;53;20976;-69
2024/01/02 07:03:13;;;;;;;0.45;0.30;;;12.90;58.00;;;;;;2544323;53;21014;-69
2024/01/02 07:05:39;;;;;;;0.52;0.20;;;12.90;58.00;;;;;;2305217;55;20985;-69
2024/01/02 07:08:06;;;;;;;0.80;0.20;;;12.90;58.00;;;;;;2543395;53;20957;-69
2024/01/02 07:10:32;;;;;;;1.10;0.20;;;12.90;58.10;;;;;;2305585;54;20945;-69
2024/01/02 07:12:59;;;;;;;0.28;0.17;;;12.90;58.00;;;;;;2304490;55;20933;-69
2024/01/02 07:15:25;;;;;;;0.10;0.10;;;12.90;58.10;;;;;;2543571;54;20977;-69
2024/01/02 07:17:51;;;;;;;0.88;0.22;;;12.90;58.10;;;;;;2304985;55;20945;-69
2024/01/02 07:20:20;;;;;;;1.10;0.20;;;12.90;58.10;;;;;;2544109;53;21554;-69
2024/01/02 07:22:47;;;;;;;0.40;0.20;;;13.00;58.20;;;;;;2542056;53;20945;-69
2024/01/02 07:25:14;;;;;;;0.75;0.40;;;13.00;58.20;;;;;;2305125;54;21052;-68
2024/01/02 07:27:42;;;;;;;0.62;0.30;;;13.00;58.20;;;;;;2304395;54;20927;-69
2024/01/02 07:33:36;;;;;;;0.73;0.20;;;13.00;58.10;;;;;;2542916;54;21845;-69
2024/01/02 07:36:03;;;;;;;0.80;0.40;;;13.00;58.20;;;;;;2304996;55;21441;-70
2024/01/02 07:38:30;;;;;;;1.05;0.50;;;13.00;58.20;;;;;;2542691;53;20902;-69
2024/01/02 07:40:57;;;;;;;0.75;0.30;;;13.00;58.20;;;;;;2543184;54;21025;-69
2024/01/02 07:43:24;;;;;;;0.40;0.20;;;13.10;58.40;;;;;;2542851;54;20950;-69
2024/01/02 07:45:50;;;;;;;0.95;0.28;;;13.10;58.30;;;;;;2305210;54;20933;-69
2024/01/02 07:48:17;;;;;;;0.43;0.20;;;13.10;58.40;;;;;;2308376;55;21556;-69
2024/01/02 07:50:44;;;;;;;0.45;0.20;;;13.10;58.40;;;;;;2311865;54;21011;-69
2024/01/02 07:53:11;;;;;;;0.37;0.20;;;13.10;58.40;;;;;;2305710;54;20934;-70
2024/01/02 07:55:38;;;;;;;0.40;0.20;;;13.10;58.40;;;;;;2543369;53;21295;-69
2024/01/02 07:58:04;;;;;;;0.47;0.20;;;13.20;58.50;;;;;;2309695;55;20966;-69
2024/01/02 08:00:33;;;;;;;0.20;0.20;;;13.10;58.40;;;;;;2306502;54;21005;-70
2024/01/02 08:03:00;;;;;;;1.27;0.40;;;13.20;58.50;;;;;;2305274;55;21025;-69
2024/01/02 08:05:28;;;;;;;0.47;0.10;;;13.20;58.50;;;;;;2310210;54;20994;-70
2024/01/02 08:07:54;;;;;;;0.80;0.30;;;13.20;58.50;;;;;;2306201;54;20949;-69
2024/01/02 08:10:20;;;;;;;0.70;0.30;;;13.20;58.60;;;;;;2543762;54;20918;-69
2024/01/02 08:12:48;;;;;;;0.47;0.30;;;13.20;58.60;;;;;;2304415;55;20978;-70
2024/01/02 08:15:16;;;;;;;0.70;0.30;;;13.20;58.70;;;;;;2305749;55;20950;-70
2024/01/02 08:17:48;;;;;;;0.40;0.28;;;13.20;58.70;;;;;;2304791;55;21100;-69
2024/01/02 08:20:18;;;;;;;0.65;0.20;;;13.20;58.70;;;;;;2308480;55;21086;-69
2024/01/02 08:22:45;;;;;;;0.77;0.20;;;13.20;58.70;;;;;;2546654;53;21030;-70
2024/01/02 08:25:11;;;;;;;0.55;0.20;;;13.20;58.80;;;;;;2543561;53;21514;-69
2024/01/02 08:27:38;;;;;;;0.25;0.20;;;13.20;58.80;;;;;;2305340;55;20974;-69
2024/01/02 08:30:08;;;;;;;0.20;0.20;;;13.20;58.80;;;;;;2304882;55;21018;-70
2024/01/02 08:32:34;;;;;;;0.68;0.20;;;13.20;58.90;;;;;;2305213;55;21676;-69
2024/01/02 08:35:01;;;;;;;1.40;0.30;;;13.20;58.90;;;;;;2543005;53;20938;-69
2024/01/02 08:37:28;;;;;;;0.80;0.30;;;13.20;58.90;;;;;;2305432;55;21766;-70
2024/01/02 08:39:55;;;;;;;1.25;0.40;;;13.20;58.90;;;;;;2304555;54;20966;-70
2024/01/02 08:42:22;;;;;;;0.98;0.37;;;13.20;58.90;;;;;;2309959;54;20974;-69
2024/01/02 08:44:48;;;;;;;1.62;0.30;;;13.20;58.90;;;;;;2306546;54;21083;-68
2024/01/02 08:47:14;;;;;;;0.65;0.35;;;13.20;59.00;;;;;;2305075;55;20934;-69
2024/01/02 08:49:41;;;;;;;0.43;0.10;;;13.20;58.90;;;;;;2304897;54;20977;-70
2024/01/02 08:52:07;;;;;;;1.45;0.37;;;13.20;59.00;;;;;;2305531;55;20981;-70
2024/01/02 08:54:33;;;;;;;0.45;0.20;;;13.20;59.00;;;;;;2543373;53;20901;-69
2024/01/02 08:57:00;;;;;;;0.62;0.30;;;13.20;59.00;;;;;;2305026;55;20925;-70
2024/01/02 08:59:27;;;;;;;0.20;0.20;;;13.20;59.10;;;;;;2311396;54;21742;-69
2024/01/02 09:01:53;;;;;;;1.45;0.35;;;13.20;59.10;;;;;;2542457;53;20922;-70
2024/01/02 09:04:20;;;;;;;0.77;0.20;;;13.20;59.20;;;;;;2305324;54;20933;-69
2024/01/02 09:06:46;;;;;;;0.37;0.20;;;13.20;59.10;;;;;;2309835;54;20977;-69
2024/01/02 09:09:13;;;;;;;0.43;0.30;;;13.30;59.20;;;;;;2551127;53;20990;-70
2024/01/02 09:11:39;;;;;;;1.00;0.28;;;13.30;59.20;;;;;;2305802;55;21003;-69
2024/01/02 09:14:06;;;;;;;0.55;0.20;;;13.30;59.20;;;;;;2304405;54;20990;-69
2024/01/02 09:16:35;;;;;;;0.30;0.20;;;13.30;59.20;;;;;;2305427;55;20958;-69
2024/01/02 09:19:02;;;;;;;0.45;0.20;;;13.30;59.20;;;;;;2309578;54;21866;-69
2024/01/02 09:21:28;;;;;;;0.52;0.20;;;13.30;59.20;;;;;;2306403;55;20969;-70
2024/01/02 09:23:54;;;;;;;0.47;0.28;;;13.30;59.20;;;;;;2304193;55;21073;-70
2024/01/02 09:26:23;;;;;;;0.37;0.20;;;13.30;59.20;;;;;;2545382;53;21002;-70
2024/01/02 09:28:49;;;;;;;0.90;0.40;;;13.40;59.30;;;;;;2306273;54;21856;-70
2024/01/02 09:31:18;;;;;;;0.60;0.30;;;13.40;59.20;;;;;;2557625;53;20980;-69
2024/01/02 09:33:45;;;;;;;0.17;0.15;;;13.40;59.20;;;;;;2309914;54;20946;-70
2024/01/02 09:36:13;;;;;;;0.98;0.30;;;13.40;59.20;;;;;;2304759;54;20986;-70
2024/01/02 09:38:45;;;;;;;0.85;0.30;;;13.50;59.20;;;;;;2305511;55;20965;-69
2024/01/02 09:41:54;;;;;;;0.98;0.28;;;13.50;59.30;;;;;;2543710;54;21775;-70
2024/01/02 09:45:00;;;;;;;0.85;0.35;;;13.50;59.20;;;;;;2543088;53;21551;-69
2024/01/02 09:47:57;;;;;;;0.65;0.28;;;13.50;59.20;;;;;;2305327;55;21004;-69
2024/01/02 09:50:34;;;;;;;0.20;0.20;;;13.50;59.20;;;;;;2543451;54;21053;-68
2024/01/02 09:56:40;;;;;;;0.65;0.30;;;13.50;59.20;;;;;;2310017;55;20997;-70
2024/01/02 09:59:24;;;;;;;0.70;0.30;;;13.50;59.20;;;;;;2309140;54;21403;-69
2024/01/02 10:04:36;;;;;;;0.88;0.30;;;13.60;59.20;;;;;;2544246;53;20929;-70
2024/01/02 10:08:45;;;;;;;2.17;0.80;;;13.60;59.30;;;;;;2304638;55;21005;-69
2024/01/02 10:12:30;;;;;;;1.12;0.40;;;13.70;59.20;;;;;;2543443;53;20934;-69
2024/01/02 10:16:36;;;;;;;0.77;0.30;;;13.70;59.10;;;;;;2542262;54;21266;-70
2024/01/02 10:20:43;;;;;;;0.57;0.30;;;13.70;59.30;;;;;;2304566;54;20920;-70
2024/01/02 10:24:59;;;;;;;0.43;0.20;;;13.80;59.30;;;;;;2542222;54;20986;-70
2024/01/02 10:28:58;;;;;;;0.30;0.20;;;13.80;59.30;;;;;;2305570;54;20953;-69
2024/01/02 10:31:36;;;;;;;0.55;0.30;;;13.80;59.30;;;;;;2305096;54;21451;-69
2024/01/02 10:35:08;;;;;;;0.60;0.22;;;13.80;59.40;;;;;;2304330;55;21038;-70
2024/01/02 10:37:39;;;;;;;0.68;0.32;;;13.80;59.20;;;;;;2546891;53;21037;-70
2024/01/02 10:40:07;;;;;;;1.40;0.30;;;13.80;59.30;;;;;;2543094;53;20951;-70
2024/01/02 10:43:39;;;;;;;1.27;0.40;;;13.90;59.40;;;;;;2305379;55;21150;-69
2024/01/02 10:46:10;;;;;;;0.50;0.20;;;13.90;59.30;;;;;;2302699;55;20965;-70
2024/01/02 10:48:55;;;;;;;0.88;0.30;;;13.90;59.40;;;;;;2303350;55;21222;-69
2024/01/02 10:51:26;;;;;;;0.65;0.30;;;13.90;59.30;;;;;;2542234;54;20974;-70
2024/01/02 10:54:24;;;;;;;0.77;0.30;;;14.00;59.50;;;;;;2302770;54;20934;-69
2024/01/02 10:57:00;;;;;;;3.20;1.20;;;14.00;59.30;;;;;;2303424;55;21010;-70
2024/01/02 11:00:18;;;;;;;2.25;0.80;;;14.00;59.40;;;;;;2304689;55;20985;-69
2024/01/02 11:03:06;;;;;;;1.40;0.50;;;14.00;59.40;;;;;;2311180;54;21407;-70
2024/01/02 11:05:42;;;;;;;1.17;0.40;;;14.00;59.30;;;;;;2304601;54;20938;-69
2024/01/02 11:10:51;;;;;;;1.20;0.43;;;14.10;59.30;;;;;;2303661;54;20962;-70
2024/01/02 11:13:17;;;;;;;1.65;0.40;;;14.10;59.20;;;;;;2304280;55;21077;-69
2024/01/02 11:15:44;;;;;;;0.93;0.30;;;14.10;59.30;;;;;;2542792;53;20959;-69
2024/01/02 11:18:10;;;;;;;1.08;0.30;;;14.10;59.30;;;;;;2540936;54;20946;-70
2024/01/02 11:21:38;;;;;;;0.95;0.30;;;14.10;59.40;;;;;;2542246;54;20950;-70
2024/01/02 11:24:06;;;;;;;1.00;0.32;;;14.10;59.20;;;;;;2303969;55;21529;-69
2024/01/02 11:26:44;;;;;;;0.62;0.30;;;14.20;59.40;;;;;;2541740;54;21006;-69
2024/01/02 11:29:21;;;;;;;1.02;0.40;;;14.20;59.40;;;;;;2303784;55;21005;-70
2024/01/02 11:31:49;;;;;;;0.70;0.30;;;14.20;59.30;;;;;;2302327;55;21190;-70
2024/01/02 11:35:30;;;;;;;1.17;0.40;;;14.20;59.40;;;;;;2540534;53;21341;-69
2024/01/02 11:38:04;;;;;;;1.40;0.30;;;14.20;59.20;;;;;;2304575;54;21435;-69
2024/01/02 11:40:33;;;;;;;2.22;0.50;;;14.30;59.20;;;;;;2305022;55;21017;-70
2024/01/02 11:43:17;;;;;;;0.68;0.35;;;14.30;59.20;;;;;;2304822;55;21765;-69
2024/01/02 11:45:43;;;;;;;0.85;0.30;;;14.30;59.20;;;;;;2542515;53;20950;-69
2024/01/02 11:48:39;;;;;;;1.65;0.55;;;14.30;59.30;;;;;;2305291;55;21764;-69
2024/01/02 11:51:24;;;;;;;1.05;0.40;;;14.30;59.20;;;;;;2304543;54;20946;-70
2024/01/02 11:55:45;;;;;;;0.82;0.35;;;14.30;59.10;;;;;;2542186;53;20981;-70
2024/01/02 11:58:22;;;;;;;1.02;0.32;;;14.30;59.00;;;;;;2542563;54;21261;-69
2024/01/02 12:01:19;;;;;;;0.95;0.40;;;14.30;59.20;;;;;;2304871;55;21839;-70
2024/01/02 12:04:14;;;;;;;1.73;0.60;;;14.40;58.90;;;;;;2304982;54;21309;-70
2024/01/02 12:07:22;;;;;;;2.40;0.70;;;14.40;58.80;;;;;;2304946;54;21081;-69
2024/01/02 12:09:49;;;;;;;1.50;0.50;;;14.30;58.80;;;;;;2304926;55;21033;-70
2024/01/02 12:12:38;;;;;;;2.28;0.73;;;14.40;59.10;;;;;;2542981;53;20945;-68
2024/01/02 12:15:12;;;;;;;1.70;0.60;;;14.40;59.00;;;;;;2303888;55;20997;-70
2024/01/02 12:17:43;;;;;;;2.28;0.60;;;14.40;59.10;;;;;;2305094;54;20994;-69
2024/01/02 12:20:10;;;;;;;2.90;0.90;;;14.40;59.10;;;;;;2304871;54;20978;-70
2024/01/02 12:22:37;;;;;;;3.42;1.12;;;14.40;59.10;;;;;;2305125;55;20998;-69
2024/01/02 12:25:04;;;;;;;3.20;1.30;;;14.40;59.10;;;;;;2303220;55;20930;-70
2024/01/02 12:27:36;;;;;;;2.97;1.05;;;14.40;59.10;;;;;;2305072;55;20998;-69
2024/01/02 12:30:07;;;;;;;2.17;0.98;;;14.40;59.10;;;;;;2303937;54;20933;-70
2024/01/02 12:33:35;;;;;;;2.00;0.80;;;14.40;59.10;;;;;;2300073;54;20966;-70
2024/01/02 12:36:17;;;;;;;1.52;0.50;;;14.40;58.80;;;;;;2530844;53;22430;-70
2024/01/02 12:38:47;;;;;;;1.73;0.68;;;14.50;59.00;;;;;;2544317;53;20985;-70
2024/01/02 12:41:23;;;;;;;1.60;0.50;;;14.40;59.10;;;;;;2303503;58;21133;-70
2024/01/02 12:43:52;;;;;;;0.98;0.47;;;14.40;59.10;;;;;;2303136;58;21068;-70
2024/01/02 12:46:25;;;;;;;1.67;0.65;;;14.40;59.10;;;;;;2541590;54;21049;-70
2024/01/02 12:49:23;;;;;;;0.90;0.40;;;14.50;59.10;;;;;;2303311;58;21105;-70
2024/01/02 12:51:50;;;;;;;0.85;0.47;;;14.50;59.10;;;;;;2302707;58;21034;-69
2024/01/02 12:54:22;;;;;;;0.82;0.30;;;14.50;59.10;;;;;;2301704;58;21910;-71
2024/01/02 12:57:00;;;;;;;1.98;0.50;;;14.50;59.10;;;;;;2541375;54;21137;-69
2024/01/02 12:59:29;;;;;;;1.62;0.60;;;14.50;59.60;;;;;;2303697;58;21097;-69
2024/01/02 13:01:56;;;;;;;1.23;0.43;;;14.50;59.10;;;;;;2541733;54;21124;-71
2024/01/02 13:04:22;;;;;;;0.75;0.30;;;14.50;59.10;;;;;;2297070;58;21058;-70
2024/01/02 13:06:49;;;;;;;0.85;0.40;;;14.50;59.10;;;;;;2301806;55;21026;-69
2024/01/02 13:09:17;;;;;;;1.10;0.30;;;14.50;59.10;;;;;;2531397;53;20961;-71
2024/01/02 13:11:43;;;;;;;0.80;0.32;;;14.50;59.10;;;;;;2542126;53;20949;-70
2024/01/02 13:14:10;;;;;;;0.60;0.30;;;14.50;59.10;;;;;;2542765;54;21081;-70
2024/01/02 13:16:38;;;;;;;1.40;0.50;;;14.50;59.10;;;;;;2543020;53;20978;-70
2024/01/02 13:19:07;;;;;;;1.77;0.40;;;14.50;59.00;;;;;;2542548;54;21041;-69
2024/01/02 13:21:36;;;;;;;1.35;0.50;;;14.50;59.10;;;;;;2308100;55;21016;-70
2024/01/02 13:24:03;;;;;;;0.90;0.30;;;14.50;59.00;;;;;;2308034;54;20985;-70
2024/01/02 13:26:44;;;;;;;2.22;0.77;;;14.50;59.10;;;;;;2304961;54;20922;-70
2024/01/02 13:29:15;;;;;;;1.23;0.30;;;14.50;59.00;;;;;;2542093;53;20945;-69
2024/01/02 13:31:44;;;;;;;0.80;0.30;;;14.50;59.10;;;;;;2541228;53;20994;-70
2024/01/02 13:34:31;;;;;;;0.73;0.30;;;14.50;59.10;;;;;;2304357;54;20941;-69
2024/01/02 13:36:57;;;;;;;0.35;0.30;;;14.50;59.00;;;;;;2289773;55;21025;-70